createdAt,value
2023-11-30T00:00:40.701Z,4.70
2023-11-30T00:03:08.830Z,4.60
2023-11-30T00:05:38.281Z,4.60
2023-11-30T00:08:06.380Z,4.60
2023-11-30T00:10:34.473Z,4.70
2023-11-30T00:13:02.579Z,4.70
2023-11-30T00:15:30.666Z,4.80
2023-11-30T00:17:58.824Z,4.90
2023-11-30T00:20:26.965Z,4.80
2023-11-30T00:22:56.325Z,4.80
2023-11-30T00:25:24.364Z,4.80
2023-11-30T00:27:52.605Z,4.80
2023-11-30T00:30:21.443Z,4.90
2023-11-30T00:32:49.709Z,4.90
2023-11-30T00:35:17.894Z,4.90
2023-11-30T00:37:45.966Z,4.90
2023-11-30T00:40:15.656Z,4.90
2023-11-30T00:42:43.753Z,5.00
2023-11-30T00:45:12.576Z,5.00
2023-11-30T00:47:40.703Z,4.90
2023-11-30T00:50:09.592Z,4.90
2023-11-30T00:52:37.637Z,5.00
2023-11-30T00:55:06.340Z,5.00
2023-11-30T00:57:35.764Z,5.00
2023-11-30T01:00:05.617Z,5.10
2023-11-30T01:02:33.761Z,5.00
2023-11-30T01:05:01.828Z,5.00
2023-11-30T01:07:29.964Z,5.00
2023-11-30T01:09:58.019Z,5.00
2023-11-30T01:12:27.763Z,5.00
2023-11-30T01:14:57.422Z,4.90
2023-11-30T01:17:25.526Z,4.90
2023-11-30T01:19:53.595Z,5.00
2023-11-30T01:22:21.727Z,4.90
2023-11-30T01:24:50.228Z,4.80
2023-11-30T01:27:18.421Z,4.90
2023-11-30T01:29:46.596Z,5.00
2023-11-30T01:32:17.580Z,5.00
2023-11-30T01:34:45.679Z,4.90
2023-11-30T01:37:13.899Z,5.00
2023-11-30T01:39:42.181Z,5.10
2023-11-30T01:42:10.405Z,5.10
2023-11-30T01:44:38.523Z,5.10
2023-11-30T01:47:06.990Z,5.10
2023-11-30T01:49:36.519Z,5.00
2023-11-30T01:52:05.118Z,4.90
2023-11-30T01:54:33.455Z,5.00
2023-11-30T01:57:01.977Z,5.00
2023-11-30T01:59:30.242Z,5.10
2023-11-30T02:02:00.037Z,5.10
2023-11-30T02:04:31.161Z,5.00
2023-11-30T02:07:00.679Z,4.90
2023-11-30T02:09:28.797Z,5.00
2023-11-30T02:11:56.975Z,5.00
2023-11-30T02:14:25.195Z,5.10
2023-11-30T02:16:53.272Z,5.20
2023-11-30T02:19:21.394Z,5.10
2023-11-30T02:21:52.116Z,5.10
2023-11-30T02:24:21.079Z,5.10
2023-11-30T02:26:49.115Z,5.10
2023-11-30T02:29:18.050Z,5.20
2023-11-30T02:31:46.165Z,5.20
2023-11-30T02:34:14.440Z,5.20
2023-11-30T02:36:42.528Z,5.20
2023-11-30T02:39:11.961Z,5.20
2023-11-30T02:41:40.024Z,5.10
2023-11-30T02:44:10.416Z,5.10
2023-11-30T02:46:38.508Z,5.00
2023-11-30T02:49:06.568Z,4.90
2023-11-30T02:51:34.644Z,5.00
2023-11-30T02:54:02.839Z,5.00
2023-11-30T02:56:32.260Z,5.00
2023-11-30T02:59:00.336Z,5.00
2023-11-30T03:01:28.490Z,5.00
2023-11-30T03:03:56.603Z,5.10
2023-11-30T03:06:24.797Z,5.10
2023-11-30T03:08:52.988Z,5.10
2023-11-30T03:11:21.279Z,5.10
2023-11-30T03:13:50.752Z,5.10
2023-11-30T03:16:25.422Z,5.10
2023-11-30T03:19:06.225Z,5.20
2023-11-30T03:21:41.501Z,5.20
2023-11-30T03:24:10.137Z,5.20
2023-11-30T03:26:38.782Z,5.10
2023-11-30T03:29:08.540Z,5.10
2023-11-30T03:31:40.440Z,5.10
2023-11-30T03:34:09.241Z,5.10
2023-11-30T03:36:37.433Z,5.10
2023-11-30T03:39:05.856Z,5.10
2023-11-30T03:41:34.243Z,5.10
2023-11-30T03:44:02.483Z,5.10
2023-11-30T03:46:31.987Z,5.10
2023-11-30T03:49:00.033Z,5.10
2023-11-30T03:51:28.154Z,5.20
2023-11-30T03:53:56.432Z,5.20
2023-11-30T03:56:24.472Z,5.20
2023-11-30T03:58:52.486Z,5.10
2023-11-30T04:01:24.225Z,5.20
2023-11-30T04:03:53.776Z,5.20
2023-11-30T04:06:22.090Z,5.20
2023-11-30T04:08:50.309Z,5.20
2023-11-30T04:11:18.792Z,5.30
2023-11-30T04:13:48.383Z,5.20
2023-11-30T04:16:17.035Z,5.20
2023-11-30T04:18:46.070Z,5.00
2023-11-30T04:21:15.961Z,5.00
2023-11-30T04:23:46.182Z,5.10
2023-11-30T04:26:14.339Z,5.10
2023-11-30T04:28:42.508Z,5.10
2023-11-30T04:31:11.063Z,5.10
2023-11-30T04:33:39.363Z,5.10
2023-11-30T04:36:08.395Z,5.00
2023-11-30T04:38:37.782Z,5.10
2023-11-30T04:41:06.208Z,5.20
2023-11-30T04:43:37.476Z,5.20
2023-11-30T04:46:06.396Z,5.10
2023-11-30T04:48:35.077Z,5.10
2023-11-30T04:51:03.498Z,5.10
2023-11-30T04:53:31.628Z,5.10
2023-11-30T04:56:01.076Z,5.10
2023-11-30T04:58:29.131Z,5.10
2023-11-30T05:00:57.541Z,5.20
2023-11-30T05:03:25.906Z,5.20
2023-11-30T05:05:54.260Z,5.10
2023-11-30T05:08:22.384Z,5.10
2023-11-30T05:10:50.561Z,5.10
2023-11-30T05:13:20.122Z,5.20
2023-11-30T05:15:48.679Z,5.10
2023-11-30T05:18:16.936Z,5.10
2023-11-30T05:20:45.040Z,5.10
2023-11-30T05:23:13.145Z,5.20
2023-11-30T05:25:41.224Z,5.20
2023-11-30T05:28:09.280Z,5.20
2023-11-30T05:30:38.798Z,5.10
2023-11-30T05:33:07.449Z,5.10
2023-11-30T05:35:36.047Z,5.10
2023-11-30T05:38:04.298Z,5.00
2023-11-30T05:40:32.361Z,5.20
2023-11-30T05:43:00.501Z,5.30
2023-11-30T05:45:29.095Z,5.20
2023-11-30T05:47:58.627Z,5.20
2023-11-30T05:50:26.967Z,5.10
2023-11-30T05:52:55.035Z,5.20
2023-11-30T05:55:23.775Z,5.20
2023-11-30T05:57:51.839Z,5.20
2023-11-30T06:00:21.516Z,5.30
2023-11-30T06:02:49.683Z,5.30
2023-11-30T06:05:19.336Z,5.30
2023-11-30T06:07:47.504Z,5.30
2023-11-30T06:10:16.220Z,5.30
2023-11-30T06:12:44.358Z,5.30
2023-11-30T06:15:13.604Z,5.20
2023-11-30T06:17:41.753Z,5.30
2023-11-30T06:20:12.594Z,5.30
2023-11-30T06:22:42.391Z,5.20
2023-11-30T06:25:10.999Z,5.20
2023-11-30T06:27:39.074Z,5.20
2023-11-30T06:30:08.667Z,5.20
2023-11-30T06:32:36.922Z,5.10
2023-11-30T06:35:06.052Z,5.20
2023-11-30T06:37:34.090Z,5.30
2023-11-30T06:40:03.715Z,5.30
2023-11-30T06:42:31.781Z,5.20
2023-11-30T06:44:59.911Z,5.20
2023-11-30T06:47:28.079Z,5.20
2023-11-30T06:49:56.119Z,5.10
2023-11-30T06:52:24.227Z,5.20
2023-11-30T06:54:52.454Z,5.20
2023-11-30T06:57:21.927Z,5.20
2023-11-30T06:59:49.992Z,5.20
2023-11-30T07:02:18.034Z,5.20
2023-11-30T07:04:46.176Z,5.20
2023-11-30T07:07:23.676Z,5.20
2023-11-30T07:09:58.768Z,5.30
2023-11-30T07:12:28.248Z,5.20
2023-11-30T07:14:56.364Z,5.20
2023-11-30T07:17:25.178Z,5.30
2023-11-30T07:19:54.337Z,5.10
2023-11-30T07:22:25.869Z,5.20
2023-11-30T07:24:54.582Z,5.30
2023-11-30T07:27:23.123Z,5.30
2023-11-30T07:29:52.599Z,5.30
2023-11-30T07:32:20.714Z,5.30
2023-11-30T07:34:48.916Z,5.30
2023-11-30T07:37:19.036Z,5.20
2023-11-30T07:39:47.515Z,5.20
2023-11-30T07:42:25.983Z,5.20
2023-11-30T07:45:03.215Z,5.20
2023-11-30T07:47:33.717Z,5.20
2023-11-30T07:50:02.123Z,5.30
2023-11-30T07:52:30.353Z,5.30
2023-11-30T07:54:58.525Z,5.30
2023-11-30T07:57:26.679Z,5.30
2023-11-30T07:59:54.850Z,5.30
2023-11-30T08:02:24.282Z,5.20
2023-11-30T08:04:52.408Z,5.20
2023-11-30T08:07:21.719Z,5.20
2023-11-30T08:09:49.846Z,5.30
2023-11-30T08:12:17.930Z,5.30
2023-11-30T08:14:45.989Z,5.20
2023-11-30T08:17:14.179Z,5.30
2023-11-30T08:19:44.269Z,5.40
2023-11-30T08:22:14.690Z,5.40
2023-11-30T08:24:43.930Z,5.40
2023-11-30T08:27:12.190Z,5.40
2023-11-30T08:29:40.371Z,5.40
2023-11-30T08:32:09.311Z,5.40
2023-11-30T08:34:37.361Z,5.30
2023-11-30T08:37:06.872Z,5.30
2023-11-30T08:39:34.947Z,5.40
2023-11-30T08:42:03.056Z,5.30
2023-11-30T08:44:31.164Z,5.30
2023-11-30T08:46:59.300Z,5.40
2023-11-30T08:49:27.383Z,5.30
2023-11-30T08:51:55.625Z,5.40
2023-11-30T08:54:25.198Z,5.40
2023-11-30T08:56:53.960Z,5.40
2023-11-30T08:59:22.659Z,5.40
2023-11-30T09:01:50.988Z,5.30
2023-11-30T09:04:19.182Z,5.30
2023-11-30T09:06:47.390Z,5.30
2023-11-30T09:09:15.472Z,5.40
2023-11-30T09:11:46.603Z,5.40
2023-11-30T09:14:14.651Z,5.40
2023-11-30T09:16:43.428Z,5.40
2023-11-30T09:19:11.867Z,5.50
2023-11-30T09:21:39.968Z,5.50
2023-11-30T09:24:08.867Z,5.40
2023-11-30T09:26:37.379Z,5.40
2023-11-30T09:29:07.145Z,5.30
2023-11-30T09:31:35.254Z,5.40
2023-11-30T09:34:04.714Z,5.40
2023-11-30T09:36:33.114Z,5.50
2023-11-30T09:39:01.170Z,5.50
2023-11-30T09:41:29.250Z,5.50
2023-11-30T09:43:59.104Z,5.40
2023-11-30T09:46:29.181Z,5.50
2023-11-30T09:48:57.286Z,5.60
2023-11-30T09:51:27.732Z,5.60
2023-11-30T09:53:58.356Z,5.60
2023-11-30T09:56:28.287Z,5.50
2023-11-30T09:58:57.070Z,5.60
2023-11-30T10:01:25.630Z,5.60
2023-11-30T10:03:54.184Z,5.60
2023-11-30T10:06:22.299Z,5.50
2023-11-30T10:08:50.765Z,5.50
2023-11-30T10:11:20.940Z,5.60
2023-11-30T10:13:49.039Z,5.40
2023-11-30T10:16:17.272Z,5.60
2023-11-30T10:18:45.511Z,5.60
2023-11-30T10:21:14.934Z,5.60
2023-11-30T10:23:46.206Z,5.70
2023-11-30T10:26:15.326Z,5.70
2023-11-30T10:28:43.649Z,5.70
2023-11-30T10:31:15.340Z,5.70
2023-11-30T10:33:45.398Z,5.70
2023-11-30T10:36:16.525Z,5.70
2023-11-30T10:38:47.976Z,5.70
2023-11-30T10:41:24.296Z,5.70
2023-11-30T10:43:59.592Z,5.70
2023-11-30T10:46:28.804Z,5.70
2023-11-30T10:48:57.614Z,5.70
2023-11-30T10:51:27.780Z,5.70
2023-11-30T10:54:10.243Z,5.80
2023-11-30T10:56:39.061Z,5.80
2023-11-30T10:59:13.768Z,5.80
2023-11-30T11:01:42.279Z,5.80
2023-11-30T11:04:10.674Z,5.80
2023-11-30T11:06:40.242Z,5.80
2023-11-30T11:09:11.002Z,5.80
2023-11-30T11:11:41.083Z,5.90
2023-11-30T11:14:09.207Z,5.80
2023-11-30T11:16:41.989Z,5.80
2023-11-30T11:19:10.922Z,5.80
2023-11-30T11:21:41.892Z,5.90
2023-11-30T11:24:10.359Z,5.90
2023-11-30T11:26:46.000Z,5.90
2023-11-30T11:29:19.500Z,5.80
2023-11-30T11:31:53.330Z,5.80
2023-11-30T11:34:21.703Z,5.80
2023-11-30T11:36:51.105Z,5.80
2023-11-30T11:39:19.195Z,5.90
2023-11-30T11:41:48.845Z,5.90
2023-11-30T11:44:17.084Z,5.90
2023-11-30T11:46:45.277Z,6.00
2023-11-30T11:49:13.502Z,6.00
2023-11-30T11:51:46.072Z,6.00
2023-11-30T11:54:20.109Z,6.00
2023-11-30T11:56:49.825Z,6.00
2023-11-30T11:59:25.490Z,6.00
2023-11-30T12:01:55.921Z,6.00
2023-11-30T12:04:29.072Z,6.00
2023-11-30T12:06:57.247Z,6.00
2023-11-30T12:09:26.856Z,6.00
2023-11-30T12:11:57.195Z,6.10
2023-11-30T12:14:25.275Z,6.00
2023-11-30T12:16:53.614Z,6.00
2023-11-30T12:19:21.765Z,6.00
2023-11-30T12:21:50.046Z,6.10
2023-11-30T12:24:18.158Z,6.10
2023-11-30T12:26:47.565Z,6.00
2023-11-30T12:29:15.657Z,6.00
2023-11-30T12:31:43.743Z,6.10
2023-11-30T12:34:11.792Z,6.20
2023-11-30T12:36:39.936Z,6.10
2023-11-30T12:39:08.314Z,6.00
2023-11-30T12:41:36.451Z,6.10
2023-11-30T12:44:06.719Z,6.20
2023-11-30T12:46:35.327Z,6.10
2023-11-30T12:49:03.705Z,6.00
2023-11-30T12:51:31.893Z,6.10
2023-11-30T12:54:00.018Z,6.10
2023-11-30T12:56:28.695Z,6.00
2023-11-30T12:58:57.667Z,6.00
2023-11-30T13:01:27.471Z,5.90
2023-11-30T13:03:55.728Z,5.90
2023-11-30T13:06:23.932Z,5.90
2023-11-30T13:08:52.421Z,6.10
2023-11-30T13:11:20.921Z,6.10
2023-11-30T13:13:48.937Z,6.00
2023-11-30T13:16:16.973Z,6.10
2023-11-30T13:18:46.588Z,6.10
2023-11-30T13:21:14.964Z,6.10
2023-11-30T13:23:43.194Z,6.00
2023-11-30T13:26:12.823Z,5.90
2023-11-30T13:28:47.584Z,6.00
2023-11-30T13:31:20.132Z,5.90
2023-11-30T13:33:49.841Z,6.00
2023-11-30T13:36:18.552Z,6.10
2023-11-30T13:38:46.590Z,6.00
2023-11-30T13:41:14.659Z,6.00
2023-11-30T13:43:42.737Z,6.00
2023-11-30T13:46:14.417Z,5.90
2023-11-30T13:48:42.808Z,5.90
2023-11-30T13:51:12.668Z,6.00
2023-11-30T13:53:40.935Z,6.00
2023-11-30T13:56:10.220Z,6.00
2023-11-30T13:58:38.265Z,6.00
2023-11-30T14:01:06.625Z,6.00
2023-11-30T14:03:34.799Z,6.10
2023-11-30T14:06:02.973Z,6.10
2023-11-30T14:08:32.430Z,6.10
2023-11-30T14:11:00.466Z,6.00
2023-11-30T14:13:28.490Z,6.00
2023-11-30T14:15:56.595Z,6.00
2023-11-30T14:18:24.744Z,6.00
2023-11-30T14:20:52.854Z,6.00
2023-11-30T14:23:21.055Z,6.00
2023-11-30T14:25:50.880Z,6.00
2023-11-30T14:28:20.122Z,5.90
2023-11-30T14:30:48.566Z,6.00
2023-11-30T14:33:16.687Z,6.00
2023-11-30T14:35:45.047Z,6.10
2023-11-30T14:38:13.082Z,6.00
2023-11-30T14:40:41.285Z,6.10
2023-11-30T14:43:10.708Z,6.00
2023-11-30T14:45:38.825Z,6.00
2023-11-30T14:48:08.111Z,6.00
2023-11-30T14:50:36.696Z,6.00
2023-11-30T14:53:05.842Z,5.90
2023-11-30T14:55:34.661Z,5.90
2023-11-30T14:58:02.711Z,5.80
2023-11-30T15:00:32.634Z,5.80
2023-11-30T15:03:03.167Z,5.80
2023-11-30T15:05:32.313Z,5.80
2023-11-30T15:08:00.397Z,5.80
2023-11-30T15:10:29.039Z,5.80
2023-11-30T15:12:57.132Z,5.90
2023-11-30T15:15:25.497Z,5.80
2023-11-30T15:17:55.017Z,5.80
2023-11-30T15:20:25.060Z,5.80
2023-11-30T15:22:53.488Z,5.80
2023-11-30T15:25:21.910Z,5.80
2023-11-30T15:27:50.738Z,5.80
2023-11-30T15:30:19.409Z,5.80
2023-11-30T15:32:47.712Z,5.80
2023-11-30T15:35:17.212Z,5.80
2023-11-30T15:37:49.594Z,5.80
2023-11-30T15:40:18.724Z,5.80
2023-11-30T15:42:46.948Z,5.70
2023-11-30T15:45:17.805Z,5.70
2023-11-30T15:47:46.274Z,5.70
2023-11-30T15:50:14.484Z,5.60
2023-11-30T15:52:44.180Z,5.60
2023-11-30T15:55:13.693Z,5.60
2023-11-30T15:57:42.787Z,5.70
2023-11-30T16:00:13.343Z,5.70
2023-11-30T16:02:41.781Z,5.70
2023-11-30T16:05:10.610Z,5.70
2023-11-30T16:07:38.701Z,5.70
2023-11-30T16:10:09.113Z,5.70
2023-11-30T16:12:37.220Z,5.70
2023-11-30T16:15:06.753Z,5.60
2023-11-30T16:17:34.840Z,5.60
2023-11-30T16:20:06.344Z,5.60
2023-11-30T16:22:34.542Z,5.50
2023-11-30T16:25:02.845Z,5.50
2023-11-30T16:27:32.381Z,5.50
2023-11-30T16:30:00.423Z,5.50
2023-11-30T16:32:28.451Z,5.50
2023-11-30T16:34:56.565Z,5.30
2023-11-30T16:37:25.362Z,5.40
2023-11-30T16:39:53.517Z,5.40
2023-11-30T16:42:21.571Z,5.60
2023-11-30T16:44:51.007Z,5.60
2023-11-30T16:47:19.159Z,5.60
2023-11-30T16:49:47.258Z,5.70
2023-11-30T16:52:15.371Z,5.60
2023-11-30T16:54:43.930Z,5.60
2023-11-30T16:57:12.072Z,5.40
2023-11-30T16:59:40.162Z,5.40
2023-11-30T17:02:09.710Z,5.50
2023-11-30T17:04:37.831Z,5.40
2023-11-30T17:07:05.962Z,5.50
2023-11-30T17:09:34.167Z,5.40
2023-11-30T17:12:03.250Z,5.30
2023-11-30T17:14:31.354Z,5.40
2023-11-30T17:17:00.341Z,5.50
2023-11-30T17:19:30.305Z,5.50
2023-11-30T17:21:58.529Z,5.50
2023-11-30T17:24:27.234Z,5.50
2023-11-30T17:26:55.400Z,5.50
2023-11-30T17:29:23.799Z,5.50
2023-11-30T17:31:51.986Z,5.60
2023-11-30T17:34:20.284Z,5.50
2023-11-30T17:36:49.947Z,5.40
2023-11-30T17:39:18.340Z,5.30
2023-11-30T17:41:46.507Z,5.20
2023-11-30T17:44:14.642Z,5.30
2023-11-30T17:46:43.997Z,5.40
2023-11-30T17:49:12.284Z,5.40
2023-11-30T17:51:40.878Z,5.30
2023-11-30T17:54:10.413Z,5.30
2023-11-30T17:56:39.680Z,5.30
2023-11-30T17:59:07.720Z,5.40
2023-11-30T18:01:35.933Z,5.50
2023-11-30T18:04:05.079Z,5.50
2023-11-30T18:06:33.280Z,5.60
2023-11-30T18:09:01.402Z,5.60
2023-11-30T18:11:30.819Z,5.50
2023-11-30T18:13:58.920Z,5.50
2023-11-30T18:16:28.565Z,5.60
2023-11-30T18:19:15.098Z,5.60
2023-11-30T18:21:43.270Z,5.60
2023-11-30T18:24:11.307Z,5.70
2023-11-30T18:26:40.654Z,5.70
2023-11-30T18:29:08.801Z,5.50
2023-11-30T18:31:36.835Z,5.50
2023-11-30T18:34:04.966Z,5.60
2023-11-30T18:36:33.062Z,5.70
2023-11-30T18:39:01.129Z,5.60
2023-11-30T18:41:29.204Z,5.50
2023-11-30T18:43:58.639Z,5.50
2023-11-30T18:46:27.018Z,5.50
2023-11-30T18:48:55.137Z,5.50
2023-11-30T18:51:29.266Z,5.60
2023-11-30T18:53:57.784Z,5.60
2023-11-30T18:56:28.621Z,5.60
2023-11-30T18:58:59.367Z,5.50
2023-11-30T19:01:27.718Z,5.50
2023-11-30T19:03:56.216Z,5.50
2023-11-30T19:06:25.240Z,5.60
2023-11-30T19:08:53.469Z,5.60
2023-11-30T19:11:22.154Z,5.60
2023-11-30T19:13:50.535Z,5.40
2023-11-30T19:16:21.791Z,5.40
2023-11-30T19:18:51.246Z,5.50
2023-11-30T19:21:20.249Z,5.50
2023-11-30T19:23:48.437Z,5.40
2023-11-30T19:26:16.632Z,5.40
2023-11-30T19:28:45.068Z,5.30
2023-11-30T19:31:13.240Z,5.40
2023-11-30T19:33:42.742Z,5.40
2023-11-30T19:36:11.779Z,5.50
2023-11-30T19:38:39.850Z,5.50
2023-11-30T19:41:09.344Z,5.40
2023-11-30T19:43:37.467Z,5.40
2023-11-30T19:46:05.778Z,5.40
2023-11-30T19:48:34.355Z,5.60
2023-11-30T19:51:05.563Z,5.60
2023-11-30T19:53:33.617Z,5.40
2023-11-30T19:56:01.785Z,5.50
2023-11-30T19:58:29.877Z,5.60
2023-11-30T20:00:57.999Z,5.60
2023-11-30T20:03:26.130Z,5.50
2023-11-30T20:05:54.239Z,5.50
2023-11-30T20:08:23.668Z,5.60
2023-11-30T20:10:52.775Z,5.50
2023-11-30T20:13:20.918Z,5.40
2023-11-30T20:15:49.101Z,5.50
2023-11-30T20:18:17.162Z,5.50
2023-11-30T20:20:45.193Z,5.50
2023-11-30T20:23:13.359Z,5.40
2023-11-30T20:25:42.871Z,5.30
2023-11-30T20:28:11.089Z,5.40
2023-11-30T20:30:39.198Z,5.50
2023-11-30T20:33:07.348Z,5.50
2023-11-30T20:35:35.442Z,5.50
2023-11-30T20:38:03.583Z,5.50
2023-11-30T20:40:31.713Z,5.40
2023-11-30T20:43:01.164Z,5.30
2023-11-30T20:45:29.228Z,5.40
2023-11-30T20:47:57.305Z,5.50
2023-11-30T20:50:25.368Z,5.60
2023-11-30T20:52:53.406Z,5.60
2023-11-30T20:55:22.938Z,5.60
2023-11-30T20:57:51.276Z,5.60
2023-11-30T21:00:21.036Z,5.50
2023-11-30T21:02:49.240Z,5.50
2023-11-30T21:05:19.338Z,5.60
2023-11-30T21:07:47.472Z,5.60
2023-11-30T21:10:15.978Z,5.60
2023-11-30T21:12:44.108Z,5.60
2023-11-30T21:15:12.988Z,5.70
2023-11-30T21:17:42.438Z,5.70
2023-11-30T21:20:10.805Z,5.70
2023-11-30T21:22:38.892Z,5.70
2023-11-30T21:25:07.087Z,5.60
2023-11-30T21:27:35.322Z,5.70
2023-11-30T21:30:03.468Z,5.70
2023-11-30T21:32:31.744Z,5.70
2023-11-30T21:35:01.221Z,5.60
2023-11-30T21:37:29.498Z,5.50
2023-11-30T21:39:57.630Z,5.70
2023-11-30T21:42:25.815Z,5.70
2023-11-30T21:44:53.913Z,5.70
2023-11-30T21:47:22.136Z,5.80
2023-11-30T21:49:50.617Z,5.80
2023-11-30T21:52:20.031Z,5.80
2023-11-30T21:54:48.149Z,5.80
2023-11-30T21:57:16.201Z,5.70
2023-11-30T21:59:44.695Z,5.70
2023-11-30T22:02:12.997Z,5.80
2023-11-30T22:04:41.309Z,5.80
2023-11-30T22:07:09.445Z,5.70
2023-11-30T22:09:39.624Z,5.70
2023-11-30T22:12:09.346Z,5.70
2023-11-30T22:14:37.424Z,5.70
2023-11-30T22:17:05.729Z,5.60
2023-11-30T22:19:33.891Z,5.80
2023-11-30T22:22:02.013Z,5.80
2023-11-30T22:24:30.145Z,5.70
2023-11-30T22:26:59.706Z,5.60
2023-11-30T22:29:28.745Z,5.70
2023-11-30T22:31:56.884Z,5.60
2023-11-30T22:34:26.134Z,5.80
2023-11-30T22:36:54.286Z,5.80
2023-11-30T22:39:22.637Z,5.70
2023-11-30T22:41:50.977Z,5.60
2023-11-30T22:44:22.072Z,5.70
2023-11-30T22:46:50.218Z,5.70
2023-11-30T22:49:20.420Z,5.70
2023-11-30T22:51:49.448Z,5.70
2023-11-30T22:54:17.722Z,5.70
2023-11-30T22:56:45.841Z,5.60
2023-11-30T22:59:14.951Z,5.60
2023-11-30T23:01:44.602Z,5.60
2023-11-30T23:04:14.427Z,5.60
2023-11-30T23:06:42.957Z,5.60
2023-11-30T23:09:11.014Z,5.70
2023-11-30T23:11:39.076Z,5.70
2023-11-30T23:14:07.177Z,5.70
2023-11-30T23:16:35.256Z,5.70
2023-11-30T23:19:04.729Z,5.70
2023-11-30T23:21:32.861Z,5.70
2023-11-30T23:24:01.362Z,5.70
2023-11-30T23:26:30.143Z,5.60
2023-11-30T23:28:58.232Z,5.60
2023-11-30T23:31:26.448Z,5.60
2023-11-30T23:33:57.389Z,5.70
2023-11-30T23:36:27.318Z,5.60
2023-11-30T23:38:55.579Z,5.60
2023-11-30T23:41:23.659Z,5.50
2023-11-30T23:43:51.723Z,5.50
2023-11-30T23:46:19.890Z,5.60
2023-11-30T23:48:47.967Z,5.60
2023-11-30T23:51:16.119Z,5.40
2023-11-30T23:53:45.811Z,5.60
2023-11-30T23:56:13.955Z,5.60
2023-11-30T23:58:42.039Z,5.60
